Terminal Aerodrome Forecast
Issued by NWS

Home | Current Version | Previous Version | Text Only | Print | Product List | Glossary On
Versions: 1 2 3 4 5 6 7 8 9 10 11 12 13
000
FTUS44 KEPZ 061741 AAA
TAFTCS
TAF AMD
KTCS 061741Z 0618/0718 20012KT P6SM FEW250
     FM061900 21015G25KT P6SM FEW100 FEW250
     FM062100 22025G35KT P6SM FEW100 FEW250
      TEMPO 0621/0701 23030G40KT
     FM070600 22012KT P6SM SCT070 SCT250=

USA.gov is the U.S. government's official web portal to all federal, state and local government web resources and services.